sensor_id;sensor_type;location;lat;lon;timestamp;P1;durP1;ratioP1;P2;durP2;ratioP2
59109;SDS011;44895;47.438;18.978;2023-12-04T00:01:45;16.52;;;10.88;;
59109;SDS011;44895;47.438;18.978;2023-12-04T00:04:48;19.17;;;11.30;;
59109;SDS011;44895;47.438;18.978;2023-12-04T00:07:52;20.58;;;10.48;;
59109;SDS011;44895;47.438;18.978;2023-12-04T00:10:56;18.05;;;10.32;;
59109;SDS011;44895;47.438;18.978;2023-12-04T00:14:00;18.67;;;11.02;;
59109;SDS011;44895;47.438;18.978;2023-12-04T00:17:03;17.15;;;9.68;;
59109;SDS011;44895;47.438;18.978;2023-12-04T00:20:08;18.75;;;11.27;;
59109;SDS011;44895;47.438;18.978;2023-12-04T00:23:15;17.88;;;10.70;;
59109;SDS011;44895;47.438;18.978;2023-12-04T00:26:18;15.52;;;9.75;;
59109;SDS011;44895;47.438;18.978;2023-12-04T00:29:22;16.50;;;9.50;;
59109;SDS011;44895;47.438;18.978;2023-12-04T00:32:26;16.23;;;10.70;;
59109;SDS011;44895;47.438;18.978;2023-12-04T00:35:29;21.20;;;11.35;;
59109;SDS011;44895;47.438;18.978;2023-12-04T00:38:33;16.90;;;10.32;;
59109;SDS011;44895;47.438;18.978;2023-12-04T00:41:37;16.98;;;9.90;;
59109;SDS011;44895;47.438;18.978;2023-12-04T00:44:40;21.25;;;10.27;;
59109;SDS011;44895;47.438;18.978;2023-12-04T00:47:44;20.13;;;10.13;;
59109;SDS011;44895;47.438;18.978;2023-12-04T00:50:48;19.20;;;10.63;;
59109;SDS011;44895;47.438;18.978;2023-12-04T00:53:54;15.55;;;8.93;;
59109;SDS011;44895;47.438;18.978;2023-12-04T00:56:57;16.08;;;10.43;;
59109;SDS011;44895;47.438;18.978;2023-12-04T01:00:01;16.25;;;10.18;;
59109;SDS011;44895;47.438;18.978;2023-12-04T01:03:05;16.48;;;10.48;;
59109;SDS011;44895;47.438;18.978;2023-12-04T01:06:19;17.52;;;10.23;;
59109;SDS011;44895;47.438;18.978;2023-12-04T01:09:24;16.75;;;9.55;;
59109;SDS011;44895;47.438;18.978;2023-12-04T01:12:28;19.92;;;10.18;;
59109;SDS011;44895;47.438;18.978;2023-12-04T01:15:32;15.20;;;9.50;;
59109;SDS011;44895;47.438;18.978;2023-12-04T01:18:36;18.70;;;10.57;;
59109;SDS011;44895;47.438;18.978;2023-12-04T01:21:39;19.10;;;12.63;;
59109;SDS011;44895;47.438;18.978;2023-12-04T01:24:43;20.73;;;12.77;;
59109;SDS011;44895;47.438;18.978;2023-12-04T01:27:47;18.80;;;11.57;;
59109;SDS011;44895;47.438;18.978;2023-12-04T01:30:51;17.42;;;10.00;;
59109;SDS011;44895;47.438;18.978;2023-12-04T01:33:54;18.85;;;11.55;;
59109;SDS011;44895;47.438;18.978;2023-12-04T01:36:58;17.80;;;10.45;;
59109;SDS011;44895;47.438;18.978;2023-12-04T01:40:02;16.52;;;9.80;;
59109;SDS011;44895;47.438;18.978;2023-12-04T01:43:07;17.58;;;9.48;;
59109;SDS011;44895;47.438;18.978;2023-12-04T01:46:10;18.88;;;10.65;;
59109;SDS011;44895;47.438;18.978;2023-12-04T01:49:14;18.60;;;10.13;;
59109;SDS011;44895;47.438;18.978;2023-12-04T01:52:18;19.13;;;10.45;;
59109;SDS011;44895;47.438;18.978;2023-12-04T01:55:22;16.95;;;9.18;;
59109;SDS011;44895;47.438;18.978;2023-12-04T01:58:26;17.85;;;10.45;;
59109;SDS011;44895;47.438;18.978;2023-12-04T02:01:30;19.42;;;11.68;;
59109;SDS011;44895;47.438;18.978;2023-12-04T02:04:33;22.23;;;12.10;;
59109;SDS011;44895;47.438;18.978;2023-12-04T02:07:37;20.38;;;11.02;;
59109;SDS011;44895;47.438;18.978;2023-12-04T02:10:41;21.42;;;11.73;;
59109;SDS011;44895;47.438;18.978;2023-12-04T02:13:44;20.00;;;11.68;;
59109;SDS011;44895;47.438;18.978;2023-12-04T02:16:48;18.98;;;11.07;;
59109;SDS011;44895;47.438;18.978;2023-12-04T02:19:54;20.42;;;10.95;;
59109;SDS011;44895;47.438;18.978;2023-12-04T02:22:58;23.60;;;13.57;;
59109;SDS011;44895;47.438;18.978;2023-12-04T02:26:07;21.35;;;13.50;;
59109;SDS011;44895;47.438;18.978;2023-12-04T02:29:15;21.30;;;12.43;;
59109;SDS011;44895;47.438;18.978;2023-12-04T02:32:28;22.95;;;12.32;;
59109;SDS011;44895;47.438;18.978;2023-12-04T02:35:34;21.20;;;11.40;;
59109;SDS011;44895;47.438;18.978;2023-12-04T02:38:39;18.10;;;11.30;;
59109;SDS011;44895;47.438;18.978;2023-12-04T02:41:43;20.98;;;11.38;;
59109;SDS011;44895;47.438;18.978;2023-12-04T02:44:47;18.05;;;10.98;;
59109;SDS011;44895;47.438;18.978;2023-12-04T02:47:50;18.23;;;9.50;;
59109;SDS011;44895;47.438;18.978;2023-12-04T02:50:54;17.48;;;10.05;;
59109;SDS011;44895;47.438;18.978;2023-12-04T02:53:59;19.48;;;11.23;;
59109;SDS011;44895;47.438;18.978;2023-12-04T02:57:04;17.13;;;11.18;;
59109;SDS011;44895;47.438;18.978;2023-12-04T03:00:08;20.02;;;9.50;;
59109;SDS011;44895;47.438;18.978;2023-12-04T03:03:12;16.30;;;9.60;;
59109;SDS011;44895;47.438;18.978;2023-12-04T03:06:16;18.67;;;9.70;;
59109;SDS011;44895;47.438;18.978;2023-12-04T03:09:20;17.45;;;9.88;;
59109;SDS011;44895;47.438;18.978;2023-12-04T03:12:23;18.02;;;9.98;;
59109;SDS011;44895;47.438;18.978;2023-12-04T03:15:27;18.73;;;9.85;;
59109;SDS011;44895;47.438;18.978;2023-12-04T03:18:32;18.15;;;11.32;;
59109;SDS011;44895;47.438;18.978;2023-12-04T03:21:36;18.50;;;10.35;;
59109;SDS011;44895;47.438;18.978;2023-12-04T03:24:39;20.65;;;12.75;;
59109;SDS011;44895;47.438;18.978;2023-12-04T03:27:43;17.27;;;10.57;;
59109;SDS011;44895;47.438;18.978;2023-12-04T03:30:47;16.73;;;9.80;;
59109;SDS011;44895;47.438;18.978;2023-12-04T03:33:51;17.15;;;10.02;;
59109;SDS011;44895;47.438;18.978;2023-12-04T03:36:54;21.65;;;11.65;;
59109;SDS011;44895;47.438;18.978;2023-12-04T03:39:58;16.42;;;9.25;;
59109;SDS011;44895;47.438;18.978;2023-12-04T03:43:02;18.75;;;10.23;;
59109;SDS011;44895;47.438;18.978;2023-12-04T03:46:06;19.40;;;10.95;;
59109;SDS011;44895;47.438;18.978;2023-12-04T03:49:10;20.50;;;10.65;;
59109;SDS011;44895;47.438;18.978;2023-12-04T03:52:14;17.58;;;11.27;;
59109;SDS011;44895;47.438;18.978;2023-12-04T03:55:19;18.40;;;10.02;;
59109;SDS011;44895;47.438;18.978;2023-12-04T03:58:23;20.92;;;10.02;;
59109;SDS011;44895;47.438;18.978;2023-12-04T04:01:27;20.00;;;11.43;;
59109;SDS011;44895;47.438;18.978;2023-12-04T04:04:31;21.05;;;9.95;;
59109;SDS011;44895;47.438;18.978;2023-12-04T04:07:34;19.52;;;11.05;;
59109;SDS011;44895;47.438;18.978;2023-12-04T04:10:39;20.15;;;10.77;;
59109;SDS011;44895;47.438;18.978;2023-12-04T04:13:43;19.45;;;10.63;;
59109;SDS011;44895;47.438;18.978;2023-12-04T04:16:47;25.15;;;10.93;;
59109;SDS011;44895;47.438;18.978;2023-12-04T04:19:54;16.13;;;10.55;;
59109;SDS011;44895;47.438;18.978;2023-12-04T04:22:58;20.65;;;10.23;;
59109;SDS011;44895;47.438;18.978;2023-12-04T04:26:02;19.00;;;12.15;;
59109;SDS011;44895;47.438;18.978;2023-12-04T04:29:06;20.15;;;10.65;;
59109;SDS011;44895;47.438;18.978;2023-12-04T04:32:09;20.17;;;11.82;;
59109;SDS011;44895;47.438;18.978;2023-12-04T04:35:13;19.92;;;10.60;;
59109;SDS011;44895;47.438;18.978;2023-12-04T04:38:16;17.95;;;10.45;;
59109;SDS011;44895;47.438;18.978;2023-12-04T04:41:20;20.00;;;10.48;;
59109;SDS011;44895;47.438;18.978;2023-12-04T04:44:24;18.52;;;10.95;;
59109;SDS011;44895;47.438;18.978;2023-12-04T04:47:27;21.63;;;13.88;;
59109;SDS011;44895;47.438;18.978;2023-12-04T04:50:31;18.48;;;10.85;;
59109;SDS011;44895;47.438;18.978;2023-12-04T04:53:34;20.00;;;11.88;;
59109;SDS011;44895;47.438;18.978;2023-12-04T04:56:38;18.67;;;11.82;;
59109;SDS011;44895;47.438;18.978;2023-12-04T04:59:42;27.13;;;15.43;;
59109;SDS011;44895;47.438;18.978;2023-12-04T05:02:46;22.80;;;13.93;;
59109;SDS011;44895;47.438;18.978;2023-12-04T05:05:49;23.23;;;12.57;;
59109;SDS011;44895;47.438;18.978;2023-12-04T05:08:53;25.33;;;14.48;;
59109;SDS011;44895;47.438;18.978;2023-12-04T05:11:57;30.80;;;15.00;;
59109;SDS011;44895;47.438;18.978;2023-12-04T05:15:01;23.30;;;15.10;;
59109;SDS011;44895;47.438;18.978;2023-12-04T05:18:05;20.40;;;13.25;;
59109;SDS011;44895;47.438;18.978;2023-12-04T05:21:09;22.30;;;12.50;;
59109;SDS011;44895;47.438;18.978;2023-12-04T05:24:13;21.90;;;12.00;;
59109;SDS011;44895;47.438;18.978;2023-12-04T05:27:17;19.95;;;12.95;;
59109;SDS011;44895;47.438;18.978;2023-12-04T05:30:21;21.05;;;12.32;;
59109;SDS011;44895;47.438;18.978;2023-12-04T05:33:25;21.80;;;14.13;;
59109;SDS011;44895;47.438;18.978;2023-12-04T05:36:29;20.60;;;13.07;;
59109;SDS011;44895;47.438;18.978;2023-12-04T05:39:33;19.15;;;11.90;;
59109;SDS011;44895;47.438;18.978;2023-12-04T05:42:37;17.38;;;10.40;;
59109;SDS011;44895;47.438;18.978;2023-12-04T05:45:40;21.38;;;12.25;;
59109;SDS011;44895;47.438;18.978;2023-12-04T05:48:44;20.65;;;12.52;;
59109;SDS011;44895;47.438;18.978;2023-12-04T05:51:48;18.23;;;11.52;;
59109;SDS011;44895;47.438;18.978;2023-12-04T05:54:52;21.15;;;11.77;;
59109;SDS011;44895;47.438;18.978;2023-12-04T05:57:55;20.05;;;11.20;;
59109;SDS011;44895;47.438;18.978;2023-12-04T06:00:59;17.25;;;10.27;;
59109;SDS011;44895;47.438;18.978;2023-12-04T06:04:03;19.13;;;12.82;;
59109;SDS011;44895;47.438;18.978;2023-12-04T06:07:07;20.38;;;12.38;;
59109;SDS011;44895;47.438;18.978;2023-12-04T06:10:10;18.17;;;11.23;;
59109;SDS011;44895;47.438;18.978;2023-12-04T06:13:14;18.73;;;10.95;;
59109;SDS011;44895;47.438;18.978;2023-12-04T06:16:17;18.70;;;11.63;;
59109;SDS011;44895;47.438;18.978;2023-12-04T06:19:21;23.15;;;12.40;;
59109;SDS011;44895;47.438;18.978;2023-12-04T06:22:25;19.27;;;11.45;;
59109;SDS011;44895;47.438;18.978;2023-12-04T06:25:29;18.40;;;12.57;;
59109;SDS011;44895;47.438;18.978;2023-12-04T06:28:34;27.27;;;17.80;;
59109;SDS011;44895;47.438;18.978;2023-12-04T06:31:38;22.73;;;15.02;;
59109;SDS011;44895;47.438;18.978;2023-12-04T06:34:42;28.95;;;19.38;;
59109;SDS011;44895;47.438;18.978;2023-12-04T06:37:47;29.10;;;21.05;;
59109;SDS011;44895;47.438;18.978;2023-12-04T06:40:52;27.77;;;19.02;;
59109;SDS011;44895;47.438;18.978;2023-12-04T06:43:56;29.67;;;20.15;;
59109;SDS011;44895;47.438;18.978;2023-12-04T06:47:01;27.98;;;18.92;;
59109;SDS011;44895;47.438;18.978;2023-12-04T06:50:05;27.55;;;18.67;;
59109;SDS011;44895;47.438;18.978;2023-12-04T06:53:09;26.38;;;19.40;;
59109;SDS011;44895;47.438;18.978;2023-12-04T06:56:13;25.92;;;17.98;;
59109;SDS011;44895;47.438;18.978;2023-12-04T06:59:18;26.67;;;18.95;;
59109;SDS011;44895;47.438;18.978;2023-12-04T07:02:22;28.60;;;17.92;;
59109;SDS011;44895;47.438;18.978;2023-12-04T07:05:26;25.27;;;17.40;;
59109;SDS011;44895;47.438;18.978;2023-12-04T07:08:30;24.73;;;15.57;;
59109;SDS011;44895;47.438;18.978;2023-12-04T07:11:34;23.52;;;14.45;;
59109;SDS011;44895;47.438;18.978;2023-12-04T07:14:37;27.33;;;14.25;;
59109;SDS011;44895;47.438;18.978;2023-12-04T07:17:41;20.30;;;12.63;;
59109;SDS011;44895;47.438;18.978;2023-12-04T07:20:45;18.80;;;12.70;;
59109;SDS011;44895;47.438;18.978;2023-12-04T07:23:49;21.10;;;12.60;;
59109;SDS011;44895;47.438;18.978;2023-12-04T07:26:52;19.67;;;11.15;;
59109;SDS011;44895;47.438;18.978;2023-12-04T07:29:56;16.40;;;11.30;;
59109;SDS011;44895;47.438;18.978;2023-12-04T07:33:00;18.73;;;11.68;;
59109;SDS011;44895;47.438;18.978;2023-12-04T07:36:03;19.45;;;12.20;;
59109;SDS011;44895;47.438;18.978;2023-12-04T07:39:07;16.13;;;9.27;;
59109;SDS011;44895;47.438;18.978;2023-12-04T07:42:12;17.90;;;9.20;;
59109;SDS011;44895;47.438;18.978;2023-12-04T07:45:15;16.63;;;11.05;;
59109;SDS011;44895;47.438;18.978;2023-12-04T07:48:19;19.42;;;11.27;;
59109;SDS011;44895;47.438;18.978;2023-12-04T07:51:22;17.95;;;10.90;;
59109;SDS011;44895;47.438;18.978;2023-12-04T07:54:26;22.48;;;13.63;;
59109;SDS011;44895;47.438;18.978;2023-12-04T07:57:30;23.42;;;14.50;;
59109;SDS011;44895;47.438;18.978;2023-12-04T08:00:34;25.02;;;17.67;;
59109;SDS011;44895;47.438;18.978;2023-12-04T08:03:37;25.88;;;16.40;;
59109;SDS011;44895;47.438;18.978;2023-12-04T08:06:41;26.33;;;17.35;;
59109;SDS011;44895;47.438;18.978;2023-12-04T08:09:45;27.95;;;19.13;;
59109;SDS011;44895;47.438;18.978;2023-12-04T08:12:49;32.13;;;18.42;;
59109;SDS011;44895;47.438;18.978;2023-12-04T08:15:52;28.80;;;19.02;;
59109;SDS011;44895;47.438;18.978;2023-12-04T08:18:57;28.25;;;16.83;;
59109;SDS011;44895;47.438;18.978;2023-12-04T08:22:01;23.55;;;15.32;;
59109;SDS011;44895;47.438;18.978;2023-12-04T08:25:04;22.90;;;17.48;;
59109;SDS011;44895;47.438;18.978;2023-12-04T08:28:08;23.25;;;16.08;;
59109;SDS011;44895;47.438;18.978;2023-12-04T08:31:12;25.67;;;16.45;;
59109;SDS011;44895;47.438;18.978;2023-12-04T08:34:16;23.73;;;15.25;;
59109;SDS011;44895;47.438;18.978;2023-12-04T08:37:19;24.88;;;16.63;;
59109;SDS011;44895;47.438;18.978;2023-12-04T08:40:23;26.92;;;19.65;;
59109;SDS011;44895;47.438;18.978;2023-12-04T08:43:27;25.02;;;18.40;;
59109;SDS011;44895;47.438;18.978;2023-12-04T08:46:32;29.52;;;16.45;;
59109;SDS011;44895;47.438;18.978;2023-12-04T08:49:36;38.65;;;19.50;;
59109;SDS011;44895;47.438;18.978;2023-12-04T08:52:43;22.58;;;15.18;;
59109;SDS011;44895;47.438;18.978;2023-12-04T08:55:48;20.60;;;12.65;;
59109;SDS011;44895;47.438;18.978;2023-12-04T08:58:52;17.27;;;11.52;;
59109;SDS011;44895;47.438;18.978;2023-12-04T09:01:56;18.92;;;12.00;;
59109;SDS011;44895;47.438;18.978;2023-12-04T09:05:00;17.73;;;12.32;;
59109;SDS011;44895;47.438;18.978;2023-12-04T09:08:03;17.40;;;10.48;;
59109;SDS011;44895;47.438;18.978;2023-12-04T09:11:07;23.98;;;11.55;;
59109;SDS011;44895;47.438;18.978;2023-12-04T09:14:11;19.35;;;12.13;;
59109;SDS011;44895;47.438;18.978;2023-12-04T09:17:15;20.38;;;12.10;;
59109;SDS011;44895;47.438;18.978;2023-12-04T09:20:19;15.13;;;9.77;;
59109;SDS011;44895;47.438;18.978;2023-12-04T09:23:23;16.83;;;10.85;;
59109;SDS011;44895;47.438;18.978;2023-12-04T09:26:27;16.73;;;10.13;;
59109;SDS011;44895;47.438;18.978;2023-12-04T09:29:31;14.48;;;9.57;;
59109;SDS011;44895;47.438;18.978;2023-12-04T09:32:35;16.08;;;10.40;;
59109;SDS011;44895;47.438;18.978;2023-12-04T09:35:38;18.00;;;10.88;;
59109;SDS011;44895;47.438;18.978;2023-12-04T09:38:42;18.05;;;10.93;;
59109;SDS011;44895;47.438;18.978;2023-12-04T09:41:46;17.50;;;9.85;;
59109;SDS011;44895;47.438;18.978;2023-12-04T09:44:50;15.02;;;10.27;;
59109;SDS011;44895;47.438;18.978;2023-12-04T09:47:55;18.13;;;9.88;;
59109;SDS011;44895;47.438;18.978;2023-12-04T09:50:59;16.40;;;10.88;;
59109;SDS011;44895;47.438;18.978;2023-12-04T09:54:04;14.45;;;8.82;;
59109;SDS011;44895;47.438;18.978;2023-12-04T09:57:09;15.32;;;10.73;;
59109;SDS011;44895;47.438;18.978;2023-12-04T10:00:13;15.85;;;9.80;;
59109;SDS011;44895;47.438;18.978;2023-12-04T10:03:18;19.77;;;12.30;;
59109;SDS011;44895;47.438;18.978;2023-12-04T10:06:22;17.55;;;11.48;;
59109;SDS011;44895;47.438;18.978;2023-12-04T10:09:29;15.77;;;10.52;;
59109;SDS011;44895;47.438;18.978;2023-12-04T10:12:33;17.25;;;12.13;;
59109;SDS011;44895;47.438;18.978;2023-12-04T10:15:50;15.88;;;10.27;;
59109;SDS011;44895;47.438;18.978;2023-12-04T10:18:54;17.75;;;10.85;;
59109;SDS011;44895;47.438;18.978;2023-12-04T10:21:58;19.23;;;12.23;;
59109;SDS011;44895;47.438;18.978;2023-12-04T10:25:15;16.25;;;10.48;;
59109;SDS011;44895;47.438;18.978;2023-12-04T10:28:20;17.48;;;10.70;;
59109;SDS011;44895;47.438;18.978;2023-12-04T10:31:23;14.40;;;8.77;;
59109;SDS011;44895;47.438;18.978;2023-12-04T10:34:27;16.55;;;9.00;;
59109;SDS011;44895;47.438;18.978;2023-12-04T10:37:31;12.93;;;8.20;;
59109;SDS011;44895;47.438;18.978;2023-12-04T10:40:36;14.40;;;8.63;;
59109;SDS011;44895;47.438;18.978;2023-12-04T10:43:47;12.73;;;7.25;;
59109;SDS011;44895;47.438;18.978;2023-12-04T10:46:53;13.13;;;8.43;;
59109;SDS011;44895;47.438;18.978;2023-12-04T10:53:05;17.25;;;9.10;;
59109;SDS011;44895;47.438;18.978;2023-12-04T10:56:10;15.43;;;9.68;;
59109;SDS011;44895;47.438;18.978;2023-12-04T10:59:18;13.70;;;7.05;;
59109;SDS011;44895;47.438;18.978;2023-12-04T11:02:29;13.63;;;7.80;;
59109;SDS011;44895;47.438;18.978;2023-12-04T11:05:37;14.95;;;8.60;;
59109;SDS011;44895;47.438;18.978;2023-12-04T11:08:42;12.98;;;7.75;;
59109;SDS011;44895;47.438;18.978;2023-12-04T11:11:51;12.35;;;7.70;;
59109;SDS011;44895;47.438;18.978;2023-12-04T11:15:01;16.67;;;9.00;;
59109;SDS011;44895;47.438;18.978;2023-12-04T11:18:09;15.98;;;10.82;;
59109;SDS011;44895;47.438;18.978;2023-12-04T11:21:17;24.02;;;12.73;;
59109;SDS011;44895;47.438;18.978;2023-12-04T11:24:23;16.67;;;10.95;;
59109;SDS011;44895;47.438;18.978;2023-12-04T11:27:27;20.58;;;11.10;;
59109;SDS011;44895;47.438;18.978;2023-12-04T11:30:30;16.17;;;10.23;;
59109;SDS011;44895;47.438;18.978;2023-12-04T11:33:36;13.85;;;8.40;;
59109;SDS011;44895;47.438;18.978;2023-12-04T11:36:40;15.27;;;9.52;;
59109;SDS011;44895;47.438;18.978;2023-12-04T11:39:49;11.07;;;7.40;;
59109;SDS011;44895;47.438;18.978;2023-12-04T11:42:53;16.42;;;9.60;;
59109;SDS011;44895;47.438;18.978;2023-12-04T11:46:09;12.13;;;7.32;;
59109;SDS011;44895;47.438;18.978;2023-12-04T11:52:32;17.55;;;10.65;;
59109;SDS011;44895;47.438;18.978;2023-12-04T11:55:38;14.30;;;9.35;;
59109;SDS011;44895;47.438;18.978;2023-12-04T11:58:46;14.88;;;8.85;;
59109;SDS011;44895;47.438;18.978;2023-12-04T12:01:50;14.20;;;8.73;;
59109;SDS011;44895;47.438;18.978;2023-12-04T12:04:57;15.93;;;9.20;;
59109;SDS011;44895;47.438;18.978;2023-12-04T12:08:01;12.98;;;7.60;;
59109;SDS011;44895;47.438;18.978;2023-12-04T12:11:06;15.48;;;9.55;;
59109;SDS011;44895;47.438;18.978;2023-12-04T12:14:10;15.10;;;8.85;;
59109;SDS011;44895;47.438;18.978;2023-12-04T12:17:14;15.18;;;8.35;;
59109;SDS011;44895;47.438;18.978;2023-12-04T12:20:18;16.05;;;7.90;;
59109;SDS011;44895;47.438;18.978;2023-12-04T12:23:23;15.63;;;8.13;;
59109;SDS011;44895;47.438;18.978;2023-12-04T12:26:28;15.13;;;9.10;;
59109;SDS011;44895;47.438;18.978;2023-12-04T12:29:31;13.18;;;8.20;;
59109;SDS011;44895;47.438;18.978;2023-12-04T12:32:35;13.70;;;7.63;;
59109;SDS011;44895;47.438;18.978;2023-12-04T12:35:39;13.18;;;8.20;;
59109;SDS011;44895;47.438;18.978;2023-12-04T12:38:44;18.15;;;8.98;;
59109;SDS011;44895;47.438;18.978;2023-12-04T12:41:53;15.77;;;8.27;;
59109;SDS011;44895;47.438;18.978;2023-12-04T12:44:59;15.15;;;8.30;;
59109;SDS011;44895;47.438;18.978;2023-12-04T12:48:04;17.10;;;8.30;;
59109;SDS011;44895;47.438;18.978;2023-12-04T12:51:07;17.00;;;9.38;;
59109;SDS011;44895;47.438;18.978;2023-12-04T12:54:14;13.50;;;7.55;;
59109;SDS011;44895;47.438;18.978;2023-12-04T12:57:18;17.85;;;8.93;;
59109;SDS011;44895;47.438;18.978;2023-12-04T13:00:22;16.40;;;9.90;;
59109;SDS011;44895;47.438;18.978;2023-12-04T13:03:26;18.08;;;9.95;;
59109;SDS011;44895;47.438;18.978;2023-12-04T13:06:31;14.85;;;9.43;;
59109;SDS011;44895;47.438;18.978;2023-12-04T13:09:35;20.60;;;10.77;;
59109;SDS011;44895;47.438;18.978;2023-12-04T13:12:39;14.35;;;8.52;;
59109;SDS011;44895;47.438;18.978;2023-12-04T13:15:43;17.70;;;9.77;;
59109;SDS011;44895;47.438;18.978;2023-12-04T13:18:47;18.45;;;9.75;;
59109;SDS011;44895;47.438;18.978;2023-12-04T13:21:51;13.50;;;7.47;;
59109;SDS011;44895;47.438;18.978;2023-12-04T13:24:54;13.90;;;8.57;;
59109;SDS011;44895;47.438;18.978;2023-12-04T13:27:58;13.43;;;7.80;;
59109;SDS011;44895;47.438;18.978;2023-12-04T13:31:03;13.70;;;8.60;;
59109;SDS011;44895;47.438;18.978;2023-12-04T13:34:08;13.43;;;8.00;;
59109;SDS011;44895;47.438;18.978;2023-12-04T13:37:12;15.38;;;7.68;;
59109;SDS011;44895;47.438;18.978;2023-12-04T13:40:16;15.32;;;9.38;;
59109;SDS011;44895;47.438;18.978;2023-12-04T13:43:19;14.23;;;8.88;;
59109;SDS011;44895;47.438;18.978;2023-12-04T13:46:41;14.70;;;8.57;;
59109;SDS011;44895;47.438;18.978;2023-12-04T13:49:45;13.95;;;7.78;;
59109;SDS011;44895;47.438;18.978;2023-12-04T13:52:50;17.10;;;7.97;;
59109;SDS011;44895;47.438;18.978;2023-12-04T13:55:59;13.70;;;8.30;;
59109;SDS011;44895;47.438;18.978;2023-12-04T13:59:03;16.30;;;8.00;;
59109;SDS011;44895;47.438;18.978;2023-12-04T14:02:08;15.15;;;8.15;;
59109;SDS011;44895;47.438;18.978;2023-12-04T14:05:15;13.13;;;7.27;;
59109;SDS011;44895;47.438;18.978;2023-12-04T14:08:19;15.95;;;9.75;;
59109;SDS011;44895;47.438;18.978;2023-12-04T14:11:23;15.15;;;7.82;;
59109;SDS011;44895;47.438;18.978;2023-12-04T14:14:27;17.00;;;8.30;;
59109;SDS011;44895;47.438;18.978;2023-12-04T14:17:30;14.20;;;8.20;;
59109;SDS011;44895;47.438;18.978;2023-12-04T14:20:34;14.35;;;8.32;;
59109;SDS011;44895;47.438;18.978;2023-12-04T14:23:38;14.75;;;8.68;;
59109;SDS011;44895;47.438;18.978;2023-12-04T14:26:42;17.80;;;8.48;;
59109;SDS011;44895;47.438;18.978;2023-12-04T14:29:46;14.27;;;8.18;;
59109;SDS011;44895;47.438;18.978;2023-12-04T14:32:50;13.18;;;7.72;;
59109;SDS011;44895;47.438;18.978;2023-12-04T14:35:53;14.63;;;7.72;;
59109;SDS011;44895;47.438;18.978;2023-12-04T14:38:58;15.10;;;8.68;;
59109;SDS011;44895;47.438;18.978;2023-12-04T14:42:02;18.00;;;9.93;;
59109;SDS011;44895;47.438;18.978;2023-12-04T14:45:06;16.35;;;8.70;;
59109;SDS011;44895;47.438;18.978;2023-12-04T14:48:10;14.27;;;8.93;;
59109;SDS011;44895;47.438;18.978;2023-12-04T14:51:14;15.00;;;8.68;;
59109;SDS011;44895;47.438;18.978;2023-12-04T14:54:18;15.77;;;9.88;;
59109;SDS011;44895;47.438;18.978;2023-12-04T14:57:25;15.63;;;8.87;;
59109;SDS011;44895;47.438;18.978;2023-12-04T15:00:43;18.95;;;9.65;;
59109;SDS011;44895;47.438;18.978;2023-12-04T15:04:05;20.33;;;10.13;;
59109;SDS011;44895;47.438;18.978;2023-12-04T15:07:28;18.52;;;10.68;;
59109;SDS011;44895;47.438;18.978;2023-12-04T15:10:50;19.20;;;11.23;;
59109;SDS011;44895;47.438;18.978;2023-12-04T15:14:03;17.83;;;10.50;;
59109;SDS011;44895;47.438;18.978;2023-12-04T15:17:18;17.80;;;11.43;;
59109;SDS011;44895;47.438;18.978;2023-12-04T15:20:48;20.17;;;10.85;;
59109;SDS011;44895;47.438;18.978;2023-12-04T15:23:51;15.52;;;9.75;;
59109;SDS011;44895;47.438;18.978;2023-12-04T15:26:55;19.45;;;11.07;;
59109;SDS011;44895;47.438;18.978;2023-12-04T15:29:59;17.02;;;10.30;;
59109;SDS011;44895;47.438;18.978;2023-12-04T15:33:03;20.25;;;12.13;;
59109;SDS011;44895;47.438;18.978;2023-12-04T15:36:06;19.73;;;11.07;;
59109;SDS011;44895;47.438;18.978;2023-12-04T15:39:13;21.60;;;11.77;;
59109;SDS011;44895;47.438;18.978;2023-12-04T15:42:19;21.17;;;12.95;;
59109;SDS011;44895;47.438;18.978;2023-12-04T15:45:23;20.85;;;13.27;;
59109;SDS011;44895;47.438;18.978;2023-12-04T15:48:27;20.48;;;13.18;;
59109;SDS011;44895;47.438;18.978;2023-12-04T15:51:31;22.02;;;14.05;;
59109;SDS011;44895;47.438;18.978;2023-12-04T15:54:34;19.10;;;11.90;;
59109;SDS011;44895;47.438;18.978;2023-12-04T15:57:38;22.05;;;12.73;;
59109;SDS011;44895;47.438;18.978;2023-12-04T16:00:42;19.77;;;12.70;;
59109;SDS011;44895;47.438;18.978;2023-12-04T16:03:47;24.33;;;13.55;;
59109;SDS011;44895;47.438;18.978;2023-12-04T16:06:50;23.70;;;13.85;;
59109;SDS011;44895;47.438;18.978;2023-12-04T16:09:54;22.63;;;13.68;;
59109;SDS011;44895;47.438;18.978;2023-12-04T16:12:58;19.65;;;12.43;;
59109;SDS011;44895;47.438;18.978;2023-12-04T16:16:02;18.70;;;12.85;;
59109;SDS011;44895;47.438;18.978;2023-12-04T16:19:06;19.20;;;12.05;;
59109;SDS011;44895;47.438;18.978;2023-12-04T16:22:10;21.73;;;13.02;;
59109;SDS011;44895;47.438;18.978;2023-12-04T16:25:13;22.38;;;15.25;;
59109;SDS011;44895;47.438;18.978;2023-12-04T16:28:22;29.27;;;12.38;;
59109;SDS011;44895;47.438;18.978;2023-12-04T16:31:26;21.67;;;12.55;;
59109;SDS011;44895;47.438;18.978;2023-12-04T16:34:30;19.70;;;12.05;;
59109;SDS011;44895;47.438;18.978;2023-12-04T16:37:33;24.05;;;14.32;;
59109;SDS011;44895;47.438;18.978;2023-12-04T16:40:38;24.00;;;13.07;;
59109;SDS011;44895;47.438;18.978;2023-12-04T16:43:41;19.80;;;12.73;;
59109;SDS011;44895;47.438;18.978;2023-12-04T16:46:46;22.80;;;14.80;;
59109;SDS011;44895;47.438;18.978;2023-12-04T16:49:51;25.45;;;14.52;;
59109;SDS011;44895;47.438;18.978;2023-12-04T16:52:55;21.35;;;14.35;;
59109;SDS011;44895;47.438;18.978;2023-12-04T16:55:59;25.08;;;13.82;;
59109;SDS011;44895;47.438;18.978;2023-12-04T16:59:03;24.35;;;13.25;;
59109;SDS011;44895;47.438;18.978;2023-12-04T17:02:06;22.27;;;14.80;;
59109;SDS011;44895;47.438;18.978;2023-12-04T17:05:10;21.95;;;14.25;;
59109;SDS011;44895;47.438;18.978;2023-12-04T17:08:14;22.08;;;13.55;;
59109;SDS011;44895;47.438;18.978;2023-12-04T17:11:18;22.67;;;13.85;;
59109;SDS011;44895;47.438;18.978;2023-12-04T17:14:21;17.92;;;12.75;;
59109;SDS011;44895;47.438;18.978;2023-12-04T17:17:25;21.67;;;13.38;;
59109;SDS011;44895;47.438;18.978;2023-12-04T17:20:29;21.88;;;13.07;;
59109;SDS011;44895;47.438;18.978;2023-12-04T17:23:33;21.45;;;13.35;;
59109;SDS011;44895;47.438;18.978;2023-12-04T17:26:37;23.15;;;12.68;;
59109;SDS011;44895;47.438;18.978;2023-12-04T17:29:41;21.80;;;14.25;;
59109;SDS011;44895;47.438;18.978;2023-12-04T17:32:45;19.70;;;12.52;;
59109;SDS011;44895;47.438;18.978;2023-12-04T17:35:48;21.23;;;13.27;;
59109;SDS011;44895;47.438;18.978;2023-12-04T17:38:53;26.48;;;14.43;;
59109;SDS011;44895;47.438;18.978;2023-12-04T17:41:56;21.30;;;12.60;;
59109;SDS011;44895;47.438;18.978;2023-12-04T17:45:03;22.60;;;13.68;;
59109;SDS011;44895;47.438;18.978;2023-12-04T17:48:07;23.98;;;13.88;;
59109;SDS011;44895;47.438;18.978;2023-12-04T17:51:14;23.80;;;13.60;;
59109;SDS011;44895;47.438;18.978;2023-12-04T17:54:19;21.92;;;14.52;;
59109;SDS011;44895;47.438;18.978;2023-12-04T17:57:22;20.48;;;13.13;;